Main page
METAR-TAF:

METAR-TAF

Airports :

Les Eplatures Airport

La Chaux-de-Fonds, Switzerland

latitude: 47-05-03N, longitude: 006-47-37E, elevation: 1027 m

Current weather observation

The report was made 20 minutes ago, at 02:50 UTC
Wind 1 kt from variable directions
Temperature 13°C
Humidity 94%
Pressure 1015 hPa
Visibility 10 km or more
no clouds below 1500 m and no cumulonimbus

METAR: LSGC 250250Z AUTO VRB01KT CAVOK 13/12 Q1015

Time: 05:10 (03:10 UTC)

Forecast

The report was made 45 minutes ago, at 02:25 UTC
Forecast valid from 25 at 03 UTC to 25 at 12 UTC
Wind 2 kt from variable directions
Visibility 10 km or more
no clouds below 1500 m and no cumulonimbus
Becoming
from 25 at 07 UTC to 27 at 09 UTC
Visibility 10 km or more
Scattered clouds at a height of 3000 ft

TAF: LSGC 250225Z 2503/2512 VRB02KT CAVOK BECMG 2507/2709 9999 SCT030

Weather observations and forecasts of more than 4000 airports (METAR and TAF reports).

The available stations are represented by yellow and red dots on the map.

Hover mouse over dot to see the name of the station.

Then click to see weather observations and forecasts.

To change the map : click on the green buttons with a black cross to zoom in, on the green button with a dash to zoom out, or on the green arrows for adjacent maps.


METAR-TAF: